Time;durP1;ratioP1;P1;durP2;ratioP2;P2;SDS_P1;SDS_P2;PMS_P1;PMS_P2;Temp;Humidity;BMP_temperature;BMP_pressure;BME280_temperature;BME280_humidity;BME280_pressure;Samples;Min_cycle;Max_cycle;Signal;HPM_P1;HPM_P2
2022/02/28 00:00:30;;;;;;;15.45;8.32;;;1.50;62.80;;;;;;4922320;28;20043;-67
2022/02/28 00:02:57;;;;;;;13.80;8.30;;;1.50;62.70;;;;;;4923033;28;20038;-66
2022/02/28 00:05:23;;;;;;;13.40;7.95;;;1.50;62.60;;;;;;4925399;28;20693;-67
2022/02/28 00:07:49;;;;;;;12.70;7.65;;;1.50;62.70;;;;;;4922760;28;20032;-66
2022/02/28 00:10:16;;;;;;;13.75;8.05;;;1.50;62.70;;;;;;4922172;28;20046;-66
2022/02/28 00:12:43;;;;;;;11.98;7.78;;;1.50;62.80;;;;;;4922706;28;20036;-66
2022/02/28 00:15:10;;;;;;;14.32;8.70;;;1.50;62.80;;;;;;4919889;28;20036;-66
2022/02/28 00:17:36;;;;;;;17.02;9.02;;;1.40;62.80;;;;;;4917356;29;20043;-66
2022/02/28 00:20:07;;;;;;;14.57;8.40;;;1.50;63.00;;;;;;4925445;28;20028;-66
2022/02/28 00:22:34;;;;;;;14.52;8.52;;;1.50;63.20;;;;;;4923230;28;20039;-66
2022/02/28 00:25:01;;;;;;;12.73;8.40;;;1.40;63.00;;;;;;4922931;28;20028;-67
2022/02/28 00:27:27;;;;;;;18.02;9.00;;;1.40;63.00;;;;;;4927596;28;20065;-66
2022/02/28 00:29:52;;;;;;;13.15;8.63;;;1.40;63.10;;;;;;4925640;29;20051;-67
2022/02/28 00:32:22;;;;;;;16.83;8.65;;;1.40;63.10;;;;;;4928970;28;20027;-67
2022/02/28 00:34:49;;;;;;;14.05;8.55;;;1.40;63.30;;;;;;4929184;28;20123;-66
2022/02/28 00:37:14;;;;;;;13.50;8.38;;;1.40;63.20;;;;;;4927447;29;20039;-66
2022/02/28 00:39:40;;;;;;;14.25;8.07;;;1.30;63.10;;;;;;4927465;28;20036;-66
2022/02/28 00:42:06;;;;;;;16.45;8.88;;;1.30;63.20;;;;;;4925980;28;20892;-66
2022/02/28 00:44:32;;;;;;;13.85;7.90;;;1.30;63.30;;;;;;4926817;28;20063;-67
2022/02/28 00:46:58;;;;;;;13.60;8.60;;;1.30;63.30;;;;;;4923182;29;20039;-66
2022/02/28 00:49:23;;;;;;;13.73;8.10;;;1.30;63.30;;;;;;4926824;28;20032;-66
2022/02/28 00:51:49;;;;;;;13.50;7.93;;;1.30;63.30;;;;;;4926848;28;20563;-65
2022/02/28 00:54:15;;;;;;;12.73;7.95;;;1.40;63.40;;;;;;4928064;28;20036;-66
2022/02/28 00:56:40;;;;;;;13.10;7.95;;;1.30;64.20;;;;;;4924081;28;20042;-66
2022/02/28 00:59:06;;;;;;;14.63;8.60;;;1.40;63.40;;;;;;4925694;28;20515;-66
2022/02/28 01:01:34;;;;;;;14.38;8.50;;;1.40;63.40;;;;;;4921648;29;20027;-66
2022/02/28 01:04:00;;;;;;;14.88;8.45;;;1.30;63.40;;;;;;4926756;28;20478;-66
2022/02/28 01:06:26;;;;;;;12.88;7.35;;;1.30;63.30;;;;;;4928581;28;20035;-67
2022/02/28 01:08:52;;;;;;;14.15;8.50;;;1.30;63.30;;;;;;4927175;28;20684;-66
2022/02/28 01:11:17;;;;;;;14.13;7.95;;;1.40;63.30;;;;;;4923444;28;22622;-66
2022/02/28 01:13:43;;;;;;;15.55;8.40;;;1.30;63.30;;;;;;4926504;28;20340;-66
2022/02/28 01:16:09;;;;;;;13.20;7.72;;;1.30;63.20;;;;;;4929826;28;20044;-66
2022/02/28 01:18:35;;;;;;;13.50;8.07;;;1.30;63.30;;;;;;4926328;28;20103;-66
2022/02/28 01:21:00;;;;;;;13.48;8.20;;;1.20;63.20;;;;;;4924445;28;20046;-66
2022/02/28 01:23:27;;;;;;;12.93;7.72;;;1.20;63.30;;;;;;4927094;28;20083;-66
2022/02/28 01:25:53;;;;;;;18.75;8.18;;;1.20;63.30;;;;;;4926374;28;20059;-66
2022/02/28 01:28:19;;;;;;;13.80;8.05;;;1.20;63.40;;;;;;4924759;29;20043;-66
2022/02/28 01:30:44;;;;;;;15.23;7.68;;;1.20;63.40;;;;;;4924544;28;20400;-67
2022/02/28 01:33:10;;;;;;;12.57;8.18;;;1.10;63.40;;;;;;4927751;28;20260;-66
2022/02/28 01:35:36;;;;;;;13.73;7.95;;;1.20;63.50;;;;;;4923407;28;20035;-66
2022/02/28 01:38:02;;;;;;;14.70;8.25;;;1.10;63.60;;;;;;4926538;28;20040;-66
2022/02/28 01:40:28;;;;;;;15.63;8.27;;;1.10;64.50;;;;;;4925508;28;20032;-66
2022/02/28 01:42:53;;;;;;;13.50;8.20;;;1.10;63.70;;;;;;4919129;29;20190;-66
2022/02/28 01:45:22;;;;;;;14.45;8.40;;;1.10;63.80;;;;;;4925799;28;20522;-66
2022/02/28 01:47:52;;;;;;;13.35;8.30;;;1.10;63.90;;;;;;4926139;28;20032;-67
2022/02/28 01:50:18;;;;;;;17.95;8.50;;;1.00;63.90;;;;;;4925517;28;20115;-67
2022/02/28 01:52:45;;;;;;;14.57;8.40;;;1.10;63.90;;;;;;4926404;28;20050;-66
2022/02/28 01:55:12;;;;;;;14.95;8.73;;;1.00;63.90;;;;;;4926195;28;20055;-66
2022/02/28 01:57:40;;;;;;;12.00;7.53;;;1.00;63.90;;;;;;4925196;28;20040;-66
2022/02/28 02:00:09;;;;;;;15.75;8.63;;;1.00;63.90;;;;;;4923733;28;20044;-66
2022/02/28 02:02:35;;;;;;;15.73;8.65;;;1.00;63.90;;;;;;4924285;28;20031;-67
2022/02/28 02:05:01;;;;;;;15.95;8.68;;;1.00;63.70;;;;;;4926297;28;20392;-66
2022/02/28 02:07:26;;;;;;;17.58;9.07;;;1.00;63.60;;;;;;4927393;28;20059;-66
2022/02/28 02:09:52;;;;;;;15.40;8.82;;;0.90;63.60;;;;;;4926174;28;20027;-66
2022/02/28 02:12:19;;;;;;;15.32;8.07;;;0.90;63.50;;;;;;4923336;29;20051;-66
2022/02/28 02:14:45;;;;;;;13.30;8.63;;;0.90;63.50;;;;;;4924409;28;20402;-66
2022/02/28 02:17:11;;;;;;;15.13;8.52;;;0.80;63.60;;;;;;4919647;29;20669;-66
2022/02/28 02:19:37;;;;;;;15.77;8.32;;;0.80;63.50;;;;;;4923120;28;20130;-66
2022/02/28 02:22:05;;;;;;;15.13;8.68;;;0.70;63.60;;;;;;4920340;29;20111;-66
2022/02/28 02:24:31;;;;;;;13.80;8.70;;;0.60;63.50;;;;;;4926187;28;20124;-66
2022/02/28 02:26:56;;;;;;;13.27;8.05;;;0.60;63.70;;;;;;4924920;28;20055;-67
2022/02/28 02:29:22;;;;;;;15.98;8.80;;;0.50;63.70;;;;;;4925396;28;20031;-66
2022/02/28 02:31:47;;;;;;;14.50;8.77;;;0.50;63.90;;;;;;4924145;28;20052;-67
2022/02/28 02:34:13;;;;;;;16.33;8.88;;;0.40;63.90;;;;;;4946588;28;20050;-67
2022/02/28 02:36:42;;;;;;;15.15;8.95;;;0.30;63.90;;;;;;4924358;28;20423;-66
2022/02/28 02:39:10;;;;;;;15.48;9.48;;;0.20;64.00;;;;;;4925808;28;20115;-66
2022/02/28 02:41:36;;;;;;;16.30;9.00;;;0.10;64.20;;;;;;4923971;28;20032;-66
2022/02/28 02:44:02;;;;;;;15.02;9.25;;;0.10;64.20;;;;;;4923512;28;20046;-66
2022/02/28 02:46:28;;;;;;;14.00;8.13;;;0.00;64.40;;;;;;4924751;28;20032;-66
2022/02/28 02:48:54;;;;;;;14.90;8.75;;;-0.10;64.50;;;;;;4923628;28;20035;-66
2022/02/28 02:51:20;;;;;;;15.45;8.90;;;-0.20;64.60;;;;;;4922984;29;20117;-67
2022/02/28 02:53:46;;;;;;;14.85;8.82;;;-0.20;64.70;;;;;;4924136;28;20043;-66
2022/02/28 02:56:14;;;;;;;16.63;9.60;;;-0.20;64.80;;;;;;4925588;28;20044;-66
2022/02/28 02:58:40;;;;;;;19.35;9.15;;;-0.20;64.90;;;;;;4923900;28;20047;-66
2022/02/28 03:01:06;;;;;;;15.05;8.82;;;-0.20;64.90;;;;;;4924206;28;20048;-66
2022/02/28 03:03:31;;;;;;;23.00;9.57;;;-0.20;64.90;;;;;;4924828;28;20549;-65
2022/02/28 03:05:57;;;;;;;14.10;8.65;;;-0.30;65.00;;;;;;4922433;28;20035;-66
2022/02/28 03:08:23;;;;;;;14.00;8.98;;;-0.30;65.10;;;;;;4920535;28;20395;-69
2022/02/28 03:10:48;;;;;;;14.55;8.48;;;-0.30;65.10;;;;;;4922510;28;20745;-66
2022/02/28 03:13:14;;;;;;;16.85;9.00;;;-0.40;65.10;;;;;;4925245;28;20039;-67
2022/02/28 03:15:40;;;;;;;15.90;9.25;;;-0.40;65.20;;;;;;4923795;28;20102;-66
2022/02/28 03:18:05;;;;;;;16.27;9.15;;;-0.40;65.30;;;;;;4924993;28;20578;-66
2022/02/28 03:20:31;;;;;;;14.30;8.50;;;-0.50;65.30;;;;;;4921970;28;20316;-66
2022/02/28 03:22:56;;;;;;;15.60;8.68;;;-0.50;65.40;;;;;;4922194;28;20047;-64
2022/02/28 03:25:22;;;;;;;16.92;8.77;;;-0.50;65.60;;;;;;4926680;28;20035;-66
2022/02/28 03:27:48;;;;;;;15.60;9.40;;;-0.60;65.70;;;;;;4924857;28;20251;-66
2022/02/28 03:30:13;;;;;;;18.95;9.43;;;-0.60;65.90;;;;;;4923778;28;20082;-66
2022/02/28 03:32:39;;;;;;;16.73;8.68;;;-0.60;66.30;;;;;;4923344;28;20042;-67
2022/02/28 03:35:05;;;;;;;16.75;9.25;;;-0.60;66.30;;;;;;4924499;28;20071;-67
2022/02/28 03:37:31;;;;;;;15.85;9.55;;;-0.60;66.30;;;;;;4918785;28;20035;-67
2022/02/28 03:39:57;;;;;;;17.50;9.18;;;-0.60;66.20;;;;;;4923777;28;20066;-66
2022/02/28 03:42:23;;;;;;;14.40;9.05;;;-0.60;66.30;;;;;;4925200;28;20075;-67
2022/02/28 03:44:48;;;;;;;16.80;8.88;;;-0.60;66.20;;;;;;4922017;29;20032;-66
2022/02/28 03:47:14;;;;;;;17.50;9.68;;;-0.60;66.10;;;;;;4923379;28;20039;-66
2022/02/28 03:49:40;;;;;;;17.38;8.90;;;-0.60;66.10;;;;;;4922398;28;20051;-66
2022/02/28 03:52:07;;;;;;;16.38;8.95;;;-0.60;66.10;;;;;;4924158;28;20375;-67
2022/02/28 03:54:33;;;;;;;18.25;9.68;;;-0.50;66.30;;;;;;4924698;28;20054;-66
2022/02/28 03:56:58;;;;;;;15.23;9.07;;;-0.50;66.30;;;;;;4925975;28;20499;-66
2022/02/28 03:59:24;;;;;;;16.48;8.80;;;-0.50;66.20;;;;;;4924424;28;20035;-66
2022/02/28 04:01:50;;;;;;;16.15;9.55;;;-0.50;66.10;;;;;;4923503;28;20039;-66
2022/02/28 04:04:17;;;;;;;15.73;8.82;;;-0.50;66.10;;;;;;4923383;28;20043;-66
2022/02/28 04:06:46;;;;;;;18.92;9.45;;;-0.50;66.10;;;;;;4922961;28;20500;-65
2022/02/28 04:09:12;;;;;;;16.05;8.98;;;-0.50;66.00;;;;;;4923469;28;20040;-66
2022/02/28 04:11:37;;;;;;;15.30;9.02;;;-0.50;66.00;;;;;;4922613;29;20058;-66
2022/02/28 04:14:03;;;;;;;15.20;9.27;;;-0.40;66.00;;;;;;4924319;28;20512;-66
2022/02/28 04:16:29;;;;;;;18.25;9.15;;;-0.40;66.90;;;;;;4922539;28;20036;-67
2022/02/28 04:18:54;;;;;;;17.92;9.00;;;-0.50;65.90;;;;;;4921659;28;20036;-67
2022/02/28 04:21:20;;;;;;;19.05;9.13;;;-0.40;66.10;;;;;;4923680;28;20044;-67
2022/02/28 04:23:46;;;;;;;16.80;9.20;;;-0.40;66.00;;;;;;4923183;28;20559;-66
2022/02/28 04:26:11;;;;;;;14.77;9.00;;;-0.40;66.10;;;;;;4924108;28;20036;-67
2022/02/28 04:28:37;;;;;;;18.13;9.38;;;-0.40;66.10;;;;;;4923152;28;20044;-66
2022/02/28 04:31:03;;;;;;;15.45;9.15;;;-0.40;66.00;;;;;;4922527;28;20076;-66
2022/02/28 04:33:28;;;;;;;18.42;9.77;;;-0.50;65.80;;;;;;4921770;28;20070;-67
2022/02/28 04:35:54;;;;;;;18.30;9.95;;;-0.50;65.80;;;;;;4926233;28;20035;-66
2022/02/28 04:38:21;;;;;;;14.43;9.23;;;-0.60;65.70;;;;;;4921211;28;20039;-66
2022/02/28 04:40:46;;;;;;;17.48;9.70;;;-0.70;65.80;;;;;;4919621;28;20047;-66
2022/02/28 04:43:12;;;;;;;17.95;9.45;;;-0.70;66.00;;;;;;4924613;28;20090;-66
2022/02/28 04:45:38;;;;;;;15.18;9.25;;;-0.70;66.10;;;;;;4922493;28;20131;-66
2022/02/28 04:48:03;;;;;;;16.63;9.40;;;-0.80;66.30;;;;;;4923435;28;20028;-66
2022/02/28 04:50:29;;;;;;;18.05;9.55;;;-0.90;66.50;;;;;;4921847;28;20059;-67
2022/02/28 04:52:55;;;;;;;15.68;8.85;;;-0.90;66.50;;;;;;4922185;28;20040;-66
2022/02/28 04:55:22;;;;;;;17.40;9.77;;;-1.00;66.60;;;;;;4923162;28;20251;-67
2022/02/28 04:57:49;;;;;;;15.77;9.07;;;-1.00;66.80;;;;;;4921240;28;20479;-65
2022/02/28 05:00:15;;;;;;;14.73;8.82;;;-1.10;66.80;;;;;;4921666;28;20096;-66
2022/02/28 05:02:41;;;;;;;16.10;8.90;;;-1.10;66.90;;;;;;4922580;28;20127;-66
2022/02/28 05:05:07;;;;;;;18.48;9.63;;;-1.20;67.00;;;;;;4923051;28;20035;-65
2022/02/28 05:07:33;;;;;;;15.65;8.90;;;-1.20;67.00;;;;;;4925590;28;20385;-67
2022/02/28 05:09:59;;;;;;;18.92;9.38;;;-1.20;67.20;;;;;;4927240;28;20028;-66
2022/02/28 05:12:25;;;;;;;14.95;8.30;;;-1.20;67.50;;;;;;4925856;28;20042;-66
2022/02/28 05:14:50;;;;;;;18.85;9.15;;;-1.20;67.70;;;;;;4931385;28;20035;-67
2022/02/28 05:17:16;;;;;;;15.13;9.10;;;-1.20;67.70;;;;;;4932017;28;20381;-66
2022/02/28 05:19:43;;;;;;;17.00;9.82;;;-1.20;67.70;;;;;;4931868;28;20500;-67
2022/02/28 05:22:09;;;;;;;16.77;9.07;;;-1.10;67.70;;;;;;4931282;28;20038;-67
2022/02/28 05:24:35;;;;;;;17.85;9.05;;;-1.10;67.70;;;;;;4931328;28;20124;-67
2022/02/28 05:27:02;;;;;;;18.88;10.05;;;-1.00;67.70;;;;;;4927121;29;20507;-66
2022/02/28 05:29:28;;;;;;;17.25;10.10;;;-1.00;67.90;;;;;;4931375;28;20078;-67
2022/02/28 05:31:57;;;;;;;20.00;10.35;;;-1.00;68.00;;;;;;4931414;28;20066;-66
2022/02/28 05:34:23;;;;;;;17.42;9.63;;;-1.00;68.20;;;;;;4928786;28;20031;-67
2022/02/28 05:36:49;;;;;;;15.68;9.32;;;-1.00;68.20;;;;;;4927368;28;20115;-66
2022/02/28 05:39:15;;;;;;;15.93;9.23;;;-1.00;68.20;;;;;;4928703;28;20028;-66
2022/02/28 05:41:41;;;;;;;17.55;9.52;;;-1.00;68.10;;;;;;4926914;28;20035;-66
2022/02/28 05:44:06;;;;;;;18.58;9.90;;;-1.00;68.00;;;;;;4929151;28;20034;-66
2022/02/28 05:46:32;;;;;;;15.50;9.80;;;-1.00;68.00;;;;;;4927257;28;20507;-67
2022/02/28 05:48:58;;;;;;;19.55;10.20;;;-1.00;68.10;;;;;;4927826;28;20043;-66
2022/02/28 05:51:25;;;;;;;19.83;9.70;;;-1.00;68.30;;;;;;4927839;28;20032;-66
2022/02/28 05:53:51;;;;;;;17.85;9.38;;;-1.00;68.40;;;;;;4947076;28;20406;-66
2022/02/28 05:56:17;;;;;;;18.45;10.60;;;-1.00;68.30;;;;;;4924242;28;20139;-64
2022/02/28 05:58:42;;;;;;;19.40;10.77;;;-1.00;68.30;;;;;;4925857;28;20050;-66
2022/02/28 06:01:08;;;;;;;18.15;10.45;;;-1.00;68.40;;;;;;4924446;28;20046;-67
2022/02/28 06:03:34;;;;;;;21.25;11.20;;;-1.00;68.20;;;;;;4929323;28;20034;-66
2022/02/28 06:06:00;;;;;;;18.90;10.88;;;-1.00;68.20;;;;;;4926530;28;20066;-66
2022/02/28 06:08:26;;;;;;;19.65;10.88;;;-1.00;68.20;;;;;;4928874;28;20097;-67
2022/02/28 06:10:51;;;;;;;20.35;11.32;;;-0.90;68.20;;;;;;4924317;28;20536;-66
2022/02/28 06:13:17;;;;;;;19.90;10.55;;;-0.90;68.30;;;;;;4926352;28;20166;-66
2022/02/28 06:15:43;;;;;;;19.17;9.65;;;-0.90;68.20;;;;;;4928354;28;20042;-66
2022/02/28 06:18:11;;;;;;;16.85;9.68;;;-0.80;68.40;;;;;;4926483;28;20428;-67
2022/02/28 06:20:40;;;;;;;17.42;9.57;;;-0.80;68.40;;;;;;4919659;28;20091;-65
2022/02/28 06:23:14;;;;;;;16.63;9.60;;;-0.70;68.40;;;;;;4924808;28;20046;-64
2022/02/28 06:25:41;;;;;;;17.25;9.52;;;-0.70;68.40;;;;;;4928702;28;20517;-65
2022/02/28 06:28:06;;;;;;;17.15;9.75;;;-0.70;68.40;;;;;;4927907;28;20048;-65
2022/02/28 06:30:32;;;;;;;19.25;9.60;;;-0.70;68.40;;;;;;4928455;28;20068;-65
2022/02/28 06:32:58;;;;;;;14.57;9.05;;;-0.60;69.10;;;;;;4926463;28;20233;-65
2022/02/28 06:35:23;;;;;;;17.33;9.63;;;-0.60;68.50;;;;;;4925602;28;20038;-65
2022/02/28 06:37:49;;;;;;;17.58;9.65;;;-0.60;68.50;;;;;;4926550;28;20040;-65
2022/02/28 06:40:14;;;;;;;17.08;9.90;;;-0.60;68.40;;;;;;4927944;28;20032;-65
2022/02/28 06:42:40;;;;;;;20.95;11.05;;;-0.50;68.50;;;;;;4926728;28;20039;-66
2022/02/28 06:45:06;;;;;;;21.17;11.13;;;-0.50;68.50;;;;;;4926135;28;20040;-65
2022/02/28 06:47:32;;;;;;;23.38;12.43;;;-0.50;68.50;;;;;;4927705;28;20039;-66
2022/02/28 06:49:58;;;;;;;21.58;12.43;;;-0.50;68.40;;;;;;4926193;28;20032;-65
2022/02/28 06:52:25;;;;;;;20.58;12.35;;;-0.40;68.40;;;;;;4925716;28;20428;-67
2022/02/28 06:54:54;;;;;;;19.65;12.20;;;-0.40;68.30;;;;;;4926292;29;20566;-65
2022/02/28 06:57:20;;;;;;;21.92;12.82;;;-0.40;68.10;;;;;;4926915;28;20495;-65
2022/02/28 06:59:46;;;;;;;20.48;12.07;;;-0.40;68.10;;;;;;4927322;28;20060;-64
2022/02/28 07:02:11;;;;;;;18.58;11.02;;;-0.50;68.10;;;;;;4927400;28;20126;-65
2022/02/28 07:04:37;;;;;;;18.17;11.18;;;-0.40;68.20;;;;;;4927609;28;20380;-65
2022/02/28 07:07:03;;;;;;;18.25;10.98;;;-0.40;68.50;;;;;;4929251;29;20133;-66
2022/02/28 07:09:29;;;;;;;20.95;10.63;;;-0.40;68.70;;;;;;4930124;28;20036;-65
2022/02/28 07:11:54;;;;;;;19.85;10.80;;;-0.40;68.90;;;;;;4931715;29;20042;-65
2022/02/28 07:14:20;;;;;;;18.83;10.70;;;-0.30;69.20;;;;;;4928030;28;20027;-65
2022/02/28 07:16:46;;;;;;;16.25;10.13;;;-0.30;69.40;;;;;;4929540;28;20417;-64
2022/02/28 07:19:11;;;;;;;20.30;10.57;;;-0.30;70.20;;;;;;4929227;28;20114;-66
2022/02/28 07:21:38;;;;;;;18.20;10.80;;;-0.20;69.40;;;;;;4928814;29;20392;-66
2022/02/28 07:24:04;;;;;;;20.15;10.63;;;-0.20;69.40;;;;;;4930312;28;20034;-66
2022/02/28 07:26:29;;;;;;;20.65;11.00;;;-0.10;69.40;;;;;;4929896;28;20439;-66
2022/02/28 07:28:55;;;;;;;19.52;10.52;;;-0.10;69.30;;;;;;4929338;28;20042;-65
2022/02/28 07:31:21;;;;;;;18.65;10.73;;;0.00;69.30;;;;;;4930398;28;20091;-65
2022/02/28 07:33:47;;;;;;;19.73;10.40;;;0.00;69.20;;;;;;4929300;28;20451;-65
2022/02/28 07:36:13;;;;;;;17.50;10.52;;;0.10;69.30;;;;;;4930401;28;20039;-65
2022/02/28 07:38:39;;;;;;;17.77;10.70;;;0.20;69.30;;;;;;4927420;28;20043;-64
2022/02/28 07:41:05;;;;;;;18.75;10.77;;;0.20;69.40;;;;;;4928256;28;20040;-66
2022/02/28 07:43:31;;;;;;;18.40;10.77;;;0.20;69.40;;;;;;4927515;28;20044;-66
2022/02/28 07:45:57;;;;;;;21.83;11.10;;;0.30;69.30;;;;;;4929080;28;20318;-65
2022/02/28 07:48:22;;;;;;;21.23;11.45;;;0.40;69.40;;;;;;4929358;28;20586;-65
2022/02/28 07:50:48;;;;;;;18.45;11.15;;;0.40;69.40;;;;;;4929259;28;20462;-65
2022/02/28 07:53:13;;;;;;;18.90;11.18;;;0.50;69.50;;;;;;4928054;29;20035;-65
2022/02/28 07:55:39;;;;;;;22.58;11.80;;;0.50;69.40;;;;;;4929924;28;20492;-65
2022/02/28 07:58:05;;;;;;;21.83;12.10;;;0.60;69.50;;;;;;4929222;28;20127;-66
2022/02/28 08:00:32;;;;;;;23.90;11.85;;;0.70;69.50;;;;;;4927476;28;20028;-65
2022/02/28 08:02:58;;;;;;;21.67;12.43;;;0.70;69.40;;;;;;4926127;28;20574;-66
2022/02/28 08:05:24;;;;;;;19.48;12.02;;;0.80;69.40;;;;;;4927716;28;20032;-65
2022/02/28 08:07:50;;;;;;;23.65;11.75;;;0.90;69.40;;;;;;4925704;28;20330;-64
2022/02/28 08:10:16;;;;;;;24.67;12.80;;;0.90;69.40;;;;;;4924970;28;20032;-65
2022/02/28 08:12:42;;;;;;;20.95;12.02;;;1.00;69.40;;;;;;4922063;28;20055;-65
2022/02/28 08:15:08;;;;;;;20.77;12.57;;;1.10;69.10;;;;;;4918395;29;20042;-64
2022/02/28 08:17:34;;;;;;;25.08;12.85;;;1.10;68.70;;;;;;4926823;28;20051;-65
2022/02/28 08:20:00;;;;;;;21.15;13.02;;;1.20;68.60;;;;;;4926697;28;20503;-65
2022/02/28 08:22:25;;;;;;;23.52;12.32;;;1.30;68.70;;;;;;4925231;28;20090;-66
2022/02/28 08:24:51;;;;;;;22.33;12.68;;;1.30;68.50;;;;;;4925896;28;20123;-65
2022/02/28 08:27:17;;;;;;;22.27;12.52;;;1.30;68.60;;;;;;4926614;28;20042;-65
2022/02/28 08:29:42;;;;;;;20.83;12.70;;;1.40;68.40;;;;;;4927916;28;20047;-65
2022/02/28 08:32:08;;;;;;;25.80;13.18;;;1.40;68.30;;;;;;4924442;28;20051;-65
2022/02/28 08:34:34;;;;;;;21.63;12.88;;;1.50;68.40;;;;;;4926889;28;20067;-65
2022/02/28 08:37:00;;;;;;;20.70;12.40;;;1.50;68.20;;;;;;4946477;28;20024;-65
2022/02/28 08:39:25;;;;;;;21.75;13.23;;;1.60;68.20;;;;;;4924975;28;20028;-65
2022/02/28 08:41:51;;;;;;;20.15;12.60;;;1.60;68.20;;;;;;4926772;28;20111;-63
2022/02/28 08:44:16;;;;;;;20.80;12.50;;;1.70;68.30;;;;;;4918440;28;20460;-65
2022/02/28 08:46:42;;;;;;;21.90;12.88;;;1.70;68.20;;;;;;4929008;28;20036;-65
2022/02/28 08:49:08;;;;;;;21.85;13.35;;;1.80;68.10;;;;;;4929379;28;20059;-65
2022/02/28 08:51:34;;;;;;;24.52;12.88;;;1.90;68.20;;;;;;4932719;28;20561;-65
2022/02/28 08:53:59;;;;;;;21.35;12.40;;;1.90;67.90;;;;;;4932802;28;20280;-65
2022/02/28 08:56:25;;;;;;;21.10;12.52;;;2.00;67.90;;;;;;4931871;28;20055;-65
2022/02/28 08:58:50;;;;;;;22.38;12.73;;;2.00;67.80;;;;;;4931945;28;20122;-65
2022/02/28 09:01:16;;;;;;;23.90;12.60;;;2.10;67.70;;;;;;4931987;28;20039;-64
2022/02/28 09:03:42;;;;;;;23.80;13.07;;;2.10;67.60;;;;;;4928894;28;20035;-64
2022/02/28 09:06:07;;;;;;;21.40;12.52;;;2.20;67.50;;;;;;4932670;28;20036;-65
2022/02/28 09:08:33;;;;;;;21.98;12.50;;;2.20;67.50;;;;;;4932713;28;20060;-66
2022/02/28 09:10:58;;;;;;;21.08;12.52;;;2.20;67.40;;;;;;4930001;28;20090;-65
2022/02/28 09:13:26;;;;;;;21.67;12.25;;;2.30;67.50;;;;;;4931879;28;20042;-65
2022/02/28 09:15:52;;;;;;;19.77;11.88;;;2.40;67.50;;;;;;4933194;28;20067;-65
2022/02/28 09:18:18;;;;;;;20.17;11.73;;;2.40;67.40;;;;;;4932898;28;20586;-65
2022/02/28 09:20:43;;;;;;;25.65;12.35;;;2.50;67.50;;;;;;4932907;28;20051;-65
2022/02/28 09:23:09;;;;;;;19.80;10.95;;;2.60;67.40;;;;;;4932497;28;20044;-65
2022/02/28 09:25:35;;;;;;;19.27;11.48;;;2.70;67.30;;;;;;4932474;28;20040;-65
2022/02/28 09:28:00;;;;;;;18.13;11.32;;;2.80;67.20;;;;;;4933123;28;20153;-65
2022/02/28 09:30:26;;;;;;;20.23;11.93;;;2.80;67.00;;;;;;4932787;28;20162;-65
2022/02/28 09:32:52;;;;;;;19.95;10.85;;;2.90;66.90;;;;;;4932796;28;20135;-64
2022/02/28 09:35:18;;;;;;;19.08;11.18;;;3.00;66.80;;;;;;4933890;28;20035;-65
2022/02/28 09:37:44;;;;;;;20.75;12.30;;;3.10;66.60;;;;;;4932467;28;20044;-65
2022/02/28 09:40:10;;;;;;;16.58;11.15;;;3.20;66.10;;;;;;4932452;28;20042;-66
2022/02/28 09:42:37;;;;;;;17.98;10.93;;;3.30;66.10;;;;;;4930115;28;20118;-65
2022/02/28 09:45:03;;;;;;;21.15;11.15;;;3.30;66.00;;;;;;4932167;28;20040;-65
2022/02/28 09:47:33;;;;;;;19.38;11.80;;;3.40;66.00;;;;;;4930300;28;20028;-65
2022/02/28 09:49:58;;;;;;;21.40;11.50;;;3.40;65.80;;;;;;4929521;28;20123;-64
2022/02/28 09:52:24;;;;;;;16.90;10.70;;;3.50;65.70;;;;;;4930390;28;20115;-65
2022/02/28 09:54:50;;;;;;;17.25;10.07;;;3.60;65.70;;;;;;4929129;28;20048;-65
2022/02/28 09:57:21;;;;;;;17.40;10.50;;;3.60;65.30;;;;;;4925324;28;20110;-65
2022/02/28 09:59:46;;;;;;;18.25;10.35;;;3.60;64.40;;;;;;4929889;28;20032;-65
2022/02/28 10:02:13;;;;;;;17.45;10.30;;;3.70;65.60;;;;;;4930239;28;20031;-65
2022/02/28 10:04:39;;;;;;;15.70;9.07;;;3.80;65.40;;;;;;4931424;28;20039;-65
2022/02/28 10:07:21;;;;;;;14.32;8.63;;;3.90;64.50;;;;;;4932192;28;20451;-65
2022/02/28 10:10:00;;;;;;;15.13;9.35;;;4.00;64.20;;;;;;4931723;28;20050;-65
2022/02/28 10:12:32;;;;;;;14.07;9.15;;;4.00;64.30;;;;;;4926720;28;20503;-65
2022/02/28 10:15:08;;;;;;;13.70;8.82;;;4.20;64.00;;;;;;4932695;28;20107;-65
2022/02/28 10:17:51;;;;;;;16.08;9.18;;;4.30;63.80;;;;;;4929038;28;20122;-65
2022/02/28 10:20:30;;;;;;;17.13;8.70;;;4.40;63.70;;;;;;4927914;28;20035;-65
2022/02/28 10:22:58;;;;;;;13.07;7.65;;;4.50;63.70;;;;;;4927081;28;20077;-65
2022/02/28 10:25:30;;;;;;;11.00;7.78;;;4.60;63.50;;;;;;4930118;28;20076;-65
2022/02/28 10:28:13;;;;;;;12.30;7.95;;;4.70;63.00;;;;;;4928006;28;20067;-65
2022/02/28 10:30:40;;;;;;;14.70;8.65;;;4.80;62.30;;;;;;4929058;28;20043;-65
2022/02/28 10:33:11;;;;;;;12.43;7.97;;;4.90;62.50;;;;;;4927170;28;20044;-65
2022/02/28 10:36:00;;;;;;;15.02;8.38;;;5.00;62.10;;;;;;4927741;28;20027;-64
2022/02/28 10:38:27;;;;;;;11.80;8.23;;;5.10;61.90;;;;;;4926877;28;20419;-65
2022/02/28 10:40:54;;;;;;;15.98;7.75;;;5.20;62.00;;;;;;4929782;28;20039;-65
2022/02/28 10:43:38;;;;;;;11.98;7.88;;;5.30;61.80;;;;;;4920490;29;20039;-65
2022/02/28 10:46:16;;;;;;;12.40;8.13;;;5.40;60.90;;;;;;4928589;28;20048;-65
2022/02/28 10:49:01;;;;;;;14.10;7.95;;;5.50;61.00;;;;;;4927705;28;20070;-65
2022/02/28 10:51:27;;;;;;;12.60;7.95;;;5.60;60.70;;;;;;4929273;28;20087;-65
2022/02/28 10:54:20;;;;;;;12.60;8.20;;;5.70;61.10;;;;;;4928297;28;20046;-65
2022/02/28 10:57:05;;;;;;;12.30;8.00;;;5.80;59.80;;;;;;4919092;28;20407;-66
2022/02/28 10:59:38;;;;;;;12.10;7.60;;;5.80;59.60;;;;;;4928801;28;20885;-65
2022/02/28 11:02:04;;;;;;;13.27;8.30;;;5.90;60.00;;;;;;4927163;28;20558;-65
2022/02/28 11:04:35;;;;;;;13.25;8.40;;;5.90;59.50;;;;;;4925122;28;20047;-65
2022/02/28 11:07:02;;;;;;;12.38;8.13;;;6.00;59.60;;;;;;4925401;29;20044;-65
2022/02/28 11:09:34;;;;;;;17.63;8.15;;;6.00;59.80;;;;;;4927801;28;20418;-65
2022/02/28 11:12:25;;;;;;;12.35;7.90;;;6.10;59.50;;;;;;4924222;28;20395;-66
2022/02/28 11:14:53;;;;;;;13.35;8.10;;;6.20;59.10;;;;;;4928427;28;20099;-65
2022/02/28 11:17:22;;;;;;;12.52;8.35;;;6.30;59.10;;;;;;4927778;28;20040;-65
2022/02/28 11:19:50;;;;;;;12.52;8.10;;;6.30;59.20;;;;;;4928018;28;20032;-64
2022/02/28 11:22:16;;;;;;;12.77;8.35;;;6.40;59.00;;;;;;4926405;28;20048;-65
2022/02/28 11:24:43;;;;;;;15.77;8.65;;;6.50;58.70;;;;;;4928128;28;20055;-65
2022/02/28 11:27:09;;;;;;;13.75;8.10;;;6.50;58.60;;;;;;4927946;28;20031;-65
2022/02/28 11:29:35;;;;;;;12.05;8.63;;;6.60;58.60;;;;;;4927425;28;20046;-65
2022/02/28 11:32:01;;;;;;;12.70;8.60;;;6.60;58.10;;;;;;4927185;28;20042;-65
2022/02/28 11:34:27;;;;;;;11.88;8.07;;;6.70;58.10;;;;;;4927437;28;20038;-66
2022/02/28 11:36:58;;;;;;;11.73;8.27;;;6.80;58.10;;;;;;4927211;28;20035;-65
2022/02/28 11:39:35;;;;;;;11.60;7.65;;;6.90;57.60;;;;;;4926525;28;20031;-66
2022/02/28 11:42:03;;;;;;;11.18;7.72;;;7.00;57.20;;;;;;4926389;28;20035;-63
2022/02/28 11:44:33;;;;;;;13.95;7.75;;;7.00;57.40;;;;;;4925152;28;20055;-66
2022/02/28 11:47:01;;;;;;;12.23;7.63;;;7.10;57.30;;;;;;4927456;28;20102;-65
2022/02/28 11:49:39;;;;;;;10.45;6.95;;;7.20;57.00;;;;;;4927535;28;20047;-66
2022/02/28 11:52:37;;;;;;;10.10;6.88;;;7.20;56.00;;;;;;4926305;28;20024;-65
2022/02/28 11:55:04;;;;;;;10.57;7.05;;;7.30;55.30;;;;;;4923966;28;20032;-64
2022/02/28 11:57:48;;;;;;;10.25;7.07;;;7.30;56.00;;;;;;4926252;29;20024;-66
2022/02/28 12:00:36;;;;;;;10.32;7.07;;;7.40;55.20;;;;;;4926431;28;20411;-63
2022/02/28 12:03:07;;;;;;;10.48;6.47;;;7.50;55.60;;;;;;4927386;28;20054;-64
2022/02/28 12:05:41;;;;;;;9.95;6.88;;;7.50;55.40;;;;;;4947619;28;20036;-65
2022/02/28 12:08:09;;;;;;;11.57;7.00;;;7.60;55.40;;;;;;4923479;28;20059;-66
2022/02/28 12:10:37;;;;;;;9.90;6.85;;;7.60;55.00;;;;;;4924713;28;20023;-65
2022/02/28 12:13:04;;;;;;;9.35;6.88;;;7.70;55.00;;;;;;4925672;28;20044;-64
2022/02/28 12:15:30;;;;;;;11.25;7.38;;;7.70;54.40;;;;;;4927287;28;20546;-65
2022/02/28 12:18:00;;;;;;;10.85;7.05;;;7.80;55.20;;;;;;4927858;28;20032;-65
2022/02/28 12:20:40;;;;;;;9.20;6.78;;;7.80;54.40;;;;;;4927352;28;20044;-66
2022/02/28 12:26:00;;;;;;;9.50;6.57;;;7.90;54.20;;;;;;4930860;28;20186;-65
2022/02/28 12:28:35;;;;;;;8.73;6.75;;;8.00;53.20;;;;;;4928123;28;20508;-65
2022/02/28 12:31:06;;;;;;;;;;;8.10;53.40;;;;;;4931611;28;20345;-65
2022/02/28 12:33:35;;;;;;;9.57;6.55;;;8.10;53.90;;;;;;4930495;28;20305;-65
2022/02/28 12:36:22;;;;;;;9.05;6.57;;;8.20;53.90;;;;;;4931305;28;20407;-66
2022/02/28 12:38:54;;;;;;;8.55;6.47;;;8.20;52.40;;;;;;4930497;28;20049;-66
2022/02/28 12:41:27;;;;;;;8.85;6.45;;;8.20;53.10;;;;;;4930624;28;20046;-65
2022/02/28 12:43:54;;;;;;;8.95;6.75;;;8.20;53.20;;;;;;4931616;28;20111;-65